Time;durP1;ratioP1;P1;durP2;ratioP2;P2;SDS_P1;SDS_P2;PMS_P1;PMS_P2;Temp;Humidity;BMP_temperature;BMP_pressure;BME280_temperature;BME280_humidity;BME280_pressure;Samples;Min_cycle;Max_cycle;Signal;HPM_P1;HPM_P2
2022/07/10 00:00:59;;;;;;;;;;;;;;;17.70;80.06;100438.88;10502568;28;19924;-66
2022/07/10 00:06:02;;;;;;;;;;;;;;;17.77;79.59;100442.13;10503286;28;19925;-69
2022/07/10 00:11:08;;;;;;;;;;;;;;;17.82;79.32;100438.41;10502835;28;19935;-68
2022/07/10 00:16:11;;;;;;;;;;;;;;;17.78;79.72;100442.06;10502669;28;19924;-67
2022/07/10 00:21:14;;;;;;;;;;;;;;;17.62;80.86;100438.28;10502525;28;20261;-68
2022/07/10 00:26:18;;;;;;;;;;;;;;;17.68;81.19;100438.06;10502438;28;20238;-72
2022/07/10 00:31:21;;;;;;;;;;;;;;;17.69;81.35;100436.31;10502608;28;19924;-67
2022/07/10 00:36:24;;;;;;;;;;;;;;;17.54;82.66;100429.84;10502064;28;19931;-67
2022/07/10 00:41:29;;;;;;;;;;;;;;;17.55;83.25;100420.22;10501889;28;19925;-68
2022/07/10 00:46:32;;;;;;;;;;;;;;;17.49;83.94;100416.03;10501689;28;20250;-66
2022/07/10 00:51:36;;;;;;;;;;;;;;;17.43;84.60;100416.22;10501697;28;19925;-66
2022/07/10 00:56:42;;;;;;;;;;;;;;;17.26;85.69;100422.09;10501528;28;19931;-67
2022/07/10 01:01:45;;;;;;;;;;;;;;;17.25;86.40;100409.91;10501695;28;19935;-71
2022/07/10 01:06:51;;;;;;;;;;;;;;;17.27;86.40;100407.22;10501218;28;19989;-66
2022/07/10 01:11:56;;;;;;;;;;;;;;;17.15;87.36;100410.28;10501110;28;19925;-68
2022/07/10 01:16:59;;;;;;;;;;;;;;;17.13;87.67;100402.50;10501205;28;19925;-68
2022/07/10 01:22:04;;;;;;;;;;;;;;;17.09;88.10;100398.25;10501065;28;19935;-70
2022/07/10 01:27:08;;;;;;;;;;;;;;;17.10;88.38;100396.50;10500687;28;20250;-68
2022/07/10 01:32:11;;;;;;;;;;;;;;;17.10;88.81;100391.25;10500869;28;19928;-67
2022/07/10 01:37:15;;;;;;;;;;;;;;;17.09;89.24;100386.91;10500965;28;19932;-68
2022/07/10 01:42:18;;;;;;;;;;;;;;;17.04;89.32;100381.84;10500486;28;20322;-68
2022/07/10 01:47:24;;;;;;;;;;;;;;;16.99;90.00;100389.00;10500374;28;19928;-68
2022/07/10 01:52:28;;;;;;;;;;;;;;;16.94;90.66;100371.72;10500371;28;19989;-73
2022/07/10 01:57:31;;;;;;;;;;;;;;;16.96;90.82;100375.16;10500289;28;19935;-67
2022/07/10 02:02:34;;;;;;;;;;;;;;;16.95;91.04;100366.41;10500354;28;20223;-68
2022/07/10 02:07:38;;;;;;;;;;;;;;;16.88;91.46;100364.06;10500279;28;19931;-66
2022/07/10 02:12:41;;;;;;;;;;;;;;;16.97;91.07;100367.22;10500143;28;19924;-66
2022/07/10 02:17:44;;;;;;;;;;;;;;;17.06;90.52;100368.66;10500488;28;19965;-69
2022/07/10 02:22:49;;;;;;;;;;;;;;;17.00;90.92;100355.75;10502212;28;20242;-68
2022/07/10 02:27:52;;;;;;;;;;;;;;;16.99;90.86;100354.91;10507153;28;20289;-69
2022/07/10 02:32:55;;;;;;;;;;;;;;;17.05;90.95;100356.47;10506854;28;20330;-66
2022/07/10 02:37:59;;;;;;;;;;;;;;;16.95;90.90;100355.94;10506947;28;20338;-68
2022/07/10 02:43:02;;;;;;;;;;;;;;;16.88;90.79;100343.94;10507343;28;19935;-71
2022/07/10 02:48:05;;;;;;;;;;;;;;;16.86;90.64;100352.78;10506410;28;19934;-71
2022/07/10 02:53:10;;;;;;;;;;;;;;;16.84;90.54;100352.00;10506289;28;19925;-67
2022/07/10 02:58:15;;;;;;;;;;;;;;;16.81;90.76;100359.94;10506519;28;19931;-70
2022/07/10 03:03:18;;;;;;;;;;;;;;;16.93;90.33;100352.50;10505776;28;19925;-69
2022/07/10 03:08:22;;;;;;;;;;;;;;;16.90;89.78;100350.00;10505767;28;19935;-68
2022/07/10 03:13:25;;;;;;;;;;;;;;;16.87;89.95;100342.25;10505387;28;19924;-68
2022/07/10 03:18:28;;;;;;;;;;;;;;;16.82;90.14;100345.94;10505224;28;20237;-69
2022/07/10 03:23:32;;;;;;;;;;;;;;;16.78;90.38;100347.81;10504708;28;19978;-69
2022/07/10 03:28:35;;;;;;;;;;;;;;;16.73;90.58;100348.88;10504751;28;19924;-66
2022/07/10 03:33:39;;;;;;;;;;;;;;;16.74;90.66;100340.13;10503521;28;19935;-68
2022/07/10 03:38:45;;;;;;;;;;;;;;;16.74;90.93;100348.00;10504638;28;19928;-66
2022/07/10 03:43:48;;;;;;;;;;;;;;;16.71;90.43;100356.81;10504196;28;20353;-67
2022/07/10 03:48:51;;;;;;;;;;;;;;;16.65;90.88;100358.78;10503847;28;19925;-66
2022/07/10 03:53:56;;;;;;;;;;;;;;;16.64;91.09;100338.72;10503696;28;19934;-67
2022/07/10 03:58:58;;;;;;;;;;;;;;;16.71;90.58;100335.84;10503634;28;20257;-68
2022/07/10 04:04:01;;;;;;;;;;;;;;;16.68;90.78;100350.81;10503530;28;19924;-70
2022/07/10 04:09:06;;;;;;;;;;;;;;;16.68;90.18;100356.06;10503099;28;19935;-68
2022/07/10 04:14:09;;;;;;;;;;;;;;;16.79;89.57;100351.31;10502964;28;19924;-67
2022/07/10 04:19:12;;;;;;;;;;;;;;;16.89;89.09;100344.81;10502752;28;19924;-67
2022/07/10 04:24:16;;;;;;;;;;;;;;;16.96;88.99;100346.31;10503067;28;20250;-69
2022/07/10 04:29:19;;;;;;;;;;;;;;;17.01;88.67;100345.22;10502359;28;19936;-69
2022/07/10 04:34:22;;;;;;;;;;;;;;;17.06;88.93;100352.91;10502135;28;19970;-68
2022/07/10 04:39:27;;;;;;;;;;;;;;;17.06;88.26;100350.31;10502072;28;19924;-69
2022/07/10 04:44:30;;;;;;;;;;;;;;;17.14;87.28;100345.63;10501648;28;20247;-69
2022/07/10 04:49:33;;;;;;;;;;;;;;;17.21;86.51;100347.09;10502370;28;19924;-69
2022/07/10 04:54:37;;;;;;;;;;;;;;;17.23;85.75;100330.41;10502106;28;19934;-71
2022/07/10 04:59:41;;;;;;;;;;;;;;;17.24;83.93;100331.25;10501528;28;20349;-66
2022/07/10 05:04:43;;;;;;;;;;;;;;;17.33;83.24;100330.91;10501279;28;19929;-71
2022/07/10 05:09:48;;;;;;;;;;;;;;;17.38;82.71;100323.69;10501295;28;20273;-67
2022/07/10 05:14:51;;;;;;;;;;;;;;;17.34;82.96;100325.59;10501168;28;19925;-70
2022/07/10 05:19:55;;;;;;;;;;;;;;;17.45;83.12;100325.19;10500837;28;20337;-68
2022/07/10 05:25:00;;;;;;;;;;;;;;;17.51;82.33;100327.63;10501029;28;20253;-68
2022/07/10 05:30:03;;;;;;;;;;;;;;;17.59;82.12;100324.69;10500980;28;19935;-69
2022/07/10 05:35:06;;;;;;;;;;;;;;;17.59;80.94;100312.41;10500856;28;19924;-68
2022/07/10 05:40:11;;;;;;;;;;;;;;;17.61;80.69;100315.84;10500875;28;19934;-68
2022/07/10 05:45:14;;;;;;;;;;;;;;;17.72;79.90;100313.66;10501243;28;19928;-70
2022/07/10 05:50:17;;;;;;;;;;;;;;;17.81;79.42;100308.00;10500758;28;19925;-68
2022/07/10 05:55:22;;;;;;;;;;;;;;;17.88;79.29;100314.72;10500231;28;19946;-69
2022/07/10 06:00:25;;;;;;;;;;;;;;;17.75;78.60;100308.28;10507364;28;20249;-69
2022/07/10 06:05:28;;;;;;;;;;;;;;;17.88;78.09;100313.88;10507913;28;20046;-67
2022/07/10 06:10:33;;;;;;;;;;;;;;;17.93;75.94;100306.69;10507902;28;19924;-68
2022/07/10 06:15:36;;;;;;;;;;;;;;;18.05;74.48;100308.81;10507748;28;19924;-69
2022/07/10 06:20:39;;;;;;;;;;;;;;;18.11;74.59;100306.78;10507327;28;19935;-68
2022/07/10 06:25:43;;;;;;;;;;;;;;;18.13;73.64;100307.56;10507098;28;19924;-69
2022/07/10 06:30:47;;;;;;;;;;;;;;;18.11;73.85;100312.03;10507529;28;19934;-69
2022/07/10 06:35:50;;;;;;;;;;;;;;;18.18;73.88;100297.72;10506926;28;19924;-66
2022/07/10 06:40:54;;;;;;;;;;;;;;;18.11;73.44;100296.25;10506736;28;19935;-71
2022/07/10 06:45:57;;;;;;;;;;;;;;;18.00;73.87;100302.91;10506588;28;19935;-70
2022/07/10 06:51:00;;;;;;;;;;;;;;;18.10;74.41;100304.22;10506323;28;19978;-66
2022/07/10 06:56:05;;;;;;;;;;;;;;;18.12;74.56;100303.22;10506022;28;19925;-67
2022/07/10 07:01:08;;;;;;;;;;;;;;;18.23;75.00;100300.13;10506263;28;19935;-66
2022/07/10 07:06:12;;;;;;;;;;;;;;;18.22;74.67;100301.91;10505786;28;19935;-69
2022/07/10 07:11:16;;;;;;;;;;;;;;;18.24;73.99;100301.88;10505438;28;19940;-68
2022/07/10 07:16:26;;;;;;;;;;;;;;;18.34;73.43;100301.38;10505470;28;19935;-69
2022/07/10 07:26:51;;;;;;;;;;;;;;;18.37;74.16;100293.41;10504919;28;19935;-69
2022/07/10 07:31:55;;;;;;;;;;;;;;;18.30;73.16;100296.34;10504811;28;20241;-67
2022/07/10 07:36:58;;;;;;;;;;;;;;;18.24;73.15;100297.44;10504331;28;19924;-72
2022/07/10 07:42:02;;;;;;;;;;;;;;;18.27;73.31;100293.84;10504236;28;20356;-66
2022/07/10 07:47:05;;;;;;;;;;;;;;;18.40;73.01;100285.41;10504051;28;19928;-67
2022/07/10 07:52:08;;;;;;;;;;;;;;;18.53;71.55;100283.09;10503669;28;20231;-71
2022/07/10 07:57:12;;;;;;;;;;;;;;;18.67;71.62;100274.59;10503432;28;19924;-70
2022/07/10 08:02:15;;;;;;;;;;;;;;;18.88;70.18;100285.00;10503386;28;20353;-68
2022/07/10 08:07:19;;;;;;;;;;;;;;;18.81;68.80;100280.13;10503476;28;20353;-67
2022/07/10 08:12:23;;;;;;;;;;;;;;;18.90;69.34;100284.94;10503042;28;19925;-66
2022/07/10 08:17:26;;;;;;;;;;;;;;;18.88;68.99;100285.00;10502962;28;19929;-67
2022/07/10 08:22:29;;;;;;;;;;;;;;;19.03;67.29;100294.00;10502127;28;20342;-68
2022/07/10 08:27:33;;;;;;;;;;;;;;;19.14;66.82;100294.34;10502589;28;19931;-70
2022/07/10 08:32:36;;;;;;;;;;;;;;;19.04;67.25;100290.44;10502274;28;20349;-67
2022/07/10 08:37:40;;;;;;;;;;;;;;;18.98;66.86;100291.56;10502215;28;19924;-70
2022/07/10 08:42:45;;;;;;;;;;;;;;;19.11;66.88;100286.59;10502010;28;20360;-69
2022/07/10 08:47:48;;;;;;;;;;;;;;;19.28;66.71;100297.19;10502176;28;19924;-67
2022/07/10 08:52:55;;;;;;;;;;;;;;;19.35;65.63;100281.09;10501663;28;20353;-68
2022/07/10 08:58:00;;;;;;;;;;;;;;;19.59;66.37;100283.50;10501920;28;19924;-69
2022/07/10 09:03:03;;;;;;;;;;;;;;;19.42;65.99;100284.28;10501448;28;19925;-74
2022/07/10 09:08:21;;;;;;;;;;;;;;;19.39;66.24;100281.78;10501781;28;20234;-69
2022/07/10 09:13:26;;;;;;;;;;;;;;;19.34;66.55;100278.53;10500970;28;19931;-67
2022/07/10 09:18:29;;;;;;;;;;;;;;;19.08;65.88;100278.84;10501579;28;19925;-71
2022/07/10 09:23:33;;;;;;;;;;;;;;;19.01;65.14;100262.50;10501315;28;20261;-69
2022/07/10 09:28:37;;;;;;;;;;;;;;;19.27;64.96;100256.03;10500757;28;19928;-69
2022/07/10 09:33:40;;;;;;;;;;;;;;;19.69;64.15;100248.72;10505233;28;19947;-67
2022/07/10 09:38:57;;;;;;;;;;;;;;;19.58;65.87;100261.56;10509728;28;20016;-67
2022/07/10 09:44:03;;;;;;;;;;;;;;;19.52;64.52;100261.84;10508811;28;20249;-69
2022/07/10 09:49:07;;;;;;;;;;;;;;;19.73;62.69;100262.56;10508895;28;20089;-66
2022/07/10 09:54:11;;;;;;;;;;;;;;;20.09;60.36;100247.56;10508952;28;19924;-69
2022/07/10 09:59:16;;;;;;;;;;;;;;;20.56;59.28;100240.75;10508245;28;20379;-66
2022/07/10 10:04:19;;;;;;;;;;;;;;;20.16;60.46;100249.88;10508025;28;19924;-68
2022/07/10 10:09:24;;;;;;;;;;;;;;;21.45;57.27;100260.47;10507854;28;20341;-67
2022/07/10 10:14:29;;;;;;;;;;;;;;;25.90;46.68;100244.31;10507636;28;19928;-67
2022/07/10 10:24:54;;;;;;;;;;;;;;;23.89;49.10;100241.84;10507510;28;20375;-67
2022/07/10 10:29:58;;;;;;;;;;;;;;;22.36;52.04;100234.88;10507607;28;20254;-69
2022/07/10 10:35:01;;;;;;;;;;;;;;;22.05;51.09;100239.41;10506946;28;19924;-69
2022/07/10 10:40:05;;;;;;;;;;;;;;;21.26;52.90;100240.47;10506678;28;20368;-67
2022/07/10 10:45:32;;;;;;;;;;;;;;;21.01;53.31;100245.38;10505998;28;19928;-68
2022/07/10 10:50:39;;;;;;;;;;;;;;;21.00;52.11;100241.88;10506632;28;19932;-70
2022/07/10 10:56:14;;;;;;;;;;;;;;;21.82;50.09;100243.41;10506224;28;19935;-66
2022/07/10 11:01:26;;;;;;;;;;;;;;;22.03;49.87;100243.94;10506322;28;19934;-67
2022/07/10 11:06:42;;;;;;;;;;;;;;;21.99;51.22;100245.91;10505822;28;20001;-69
2022/07/10 11:11:45;;;;;;;;;;;;;;;22.43;50.79;100236.19;10505687;28;20258;-68
2022/07/10 11:16:50;;;;;;;;;;;;;;;22.56;50.87;100220.44;10505371;28;19935;-64
2022/07/10 11:22:14;;;;;;;;;;;;;;;23.16;50.76;100234.31;10505174;28;20368;-69
2022/07/10 11:27:27;;;;;;;;;;;;;;;23.65;50.02;100216.97;10504723;28;20344;-66
2022/07/10 11:32:31;;;;;;;;;;;;;;;23.92;49.23;100215.09;10504696;28;19924;-68
2022/07/10 11:37:34;;;;;;;;;;;;;;;24.01;48.07;100230.44;10504311;28;19931;-66
2022/07/10 11:42:53;;;;;;;;;;;;;;;24.18;46.45;100206.28;10504650;28;19924;-67
2022/07/10 11:47:57;;;;;;;;;;;;;;;24.98;45.23;100220.09;10503965;28;19925;-69
2022/07/10 11:53:00;;;;;;;;;;;;;;;24.77;43.54;100212.78;10503870;28;19924;-69
2022/07/10 11:58:13;;;;;;;;;;;;;;;25.47;44.33;100206.75;10502594;28;19925;-68
2022/07/10 12:03:19;;;;;;;;;;;;;;;26.03;44.76;100199.88;10503343;28;20256;-66
2022/07/10 12:08:30;;;;;;;;;;;;;;;25.09;46.34;100212.16;10503383;28;19932;-67
2022/07/10 12:13:33;;;;;;;;;;;;;;;24.21;46.51;100214.06;10502612;28;19931;-68
2022/07/10 12:18:40;;;;;;;;;;;;;;;25.02;44.63;100216.22;10502717;28;19935;-67
2022/07/10 12:23:46;;;;;;;;;;;;;;;25.47;43.45;100219.22;10502740;28;19931;-68
2022/07/10 12:28:49;;;;;;;;;;;;;;;25.61;43.07;100219.06;10502161;28;20273;-68
2022/07/10 12:33:57;;;;;;;;;;;;;;;25.88;41.92;100219.63;10502052;28;20345;-67
2022/07/10 12:39:00;;;;;;;;;;;;;;;26.23;41.47;100224.97;10502097;28;19924;-66
2022/07/10 12:44:04;;;;;;;;;;;;;;;26.13;42.76;100214.19;10501824;28;19924;-69
2022/07/10 12:49:09;;;;;;;;;;;;;;;26.36;43.26;100231.91;10501783;28;19935;-67
2022/07/10 12:54:27;;;;;;;;;;;;;;;24.87;46.62;100235.91;10501702;28;19924;-67
2022/07/10 12:59:33;;;;;;;;;;;;;;;23.51;49.80;100236.41;10501384;28;19924;-65
2022/07/10 13:04:38;;;;;;;;;;;;;;;22.39;53.79;100253.19;10501463;28;19924;-66
2022/07/10 13:09:41;;;;;;;;;;;;;;;22.20;53.99;100247.28;10501018;28;19935;-70
2022/07/10 13:14:44;;;;;;;;;;;;;;;23.34;51.40;100254.34;10501148;28;19925;-65
2022/07/10 13:19:49;;;;;;;;;;;;;;;23.69;49.49;100252.91;10500999;28;19931;-68
2022/07/10 13:24:52;;;;;;;;;;;;;;;23.40;50.04;100254.78;10501004;28;19925;-67
2022/07/10 13:29:55;;;;;;;;;;;;;;;23.69;49.59;100251.09;10501265;28;19934;-69
2022/07/10 13:34:59;;;;;;;;;;;;;;;23.02;51.84;100268.75;10500594;28;19924;-68
2022/07/10 13:40:02;;;;;;;;;;;;;;;21.87;55.39;100290.69;10500775;28;19934;-67
2022/07/10 13:45:05;;;;;;;;;;;;;;;21.03;61.21;100309.50;10500700;28;19924;-70
2022/07/10 13:50:10;;;;;;;;;;;;;;;20.24;66.14;100321.50;10500506;28;19924;-67
2022/07/10 13:55:13;;;;;;;;;;;;;;;19.70;69.55;100321.53;10500449;28;19924;-66
2022/07/10 14:00:16;;;;;;;;;;;;;;;19.41;72.38;100312.38;10500369;28;19925;-65
2022/07/10 14:05:20;;;;;;;;;;;;;;;19.77;74.87;100301.88;10499954;28;20360;-67
2022/07/10 14:10:23;;;;;;;;;;;;;;;20.21;74.64;100300.56;10499880;28;19935;-65
2022/07/10 14:15:26;;;;;;;;;;;;;;;21.52;72.87;100295.28;10499746;28;19925;-68
2022/07/10 14:21:02;;;;;;;;;;;;;;;22.37;66.75;100280.66;10504889;28;19935;-66
2022/07/10 14:25:55;;;;;;;;;;;;;;;22.71;65.89;100283.03;10507254;28;19925;-67
2022/07/10 14:31:00;;;;;;;;;;;;;;;22.68;64.69;100288.50;10507165;28;20241;-72
2022/07/10 14:36:04;;;;;;;;;;;;;;;22.92;62.31;100296.75;10506877;28;19924;-68
2022/07/10 14:41:07;;;;;;;;;;;;;;;23.13;61.64;100298.03;10506800;28;19924;-69
2022/07/10 14:46:10;;;;;;;;;;;;;;;23.38;61.16;100307.06;10507154;28;19928;-65
2022/07/10 14:51:15;;;;;;;;;;;;;;;22.61;62.04;100301.25;10506270;28;19990;-67
2022/07/10 14:56:19;;;;;;;;;;;;;;;21.94;62.53;100315.84;10505930;28;19930;-68
2022/07/10 15:01:22;;;;;;;;;;;;;;;21.42;61.92;100318.75;10506001;28;19924;-69
2022/07/10 15:06:27;;;;;;;;;;;;;;;21.15;61.68;100322.03;10505663;28;20365;-65
2022/07/10 15:11:30;;;;;;;;;;;;;;;20.91;61.91;100318.88;10505569;28;19924;-68
2022/07/10 15:16:33;;;;;;;;;;;;;;;20.60;61.78;100324.06;10505365;28;20261;-64
2022/07/10 15:21:37;;;;;;;;;;;;;;;20.48;62.11;100338.72;10504972;28;20321;-68
2022/07/10 15:26:40;;;;;;;;;;;;;;;20.49;62.26;100329.03;10504958;28;19924;-67
2022/07/10 15:31:43;;;;;;;;;;;;;;;20.23;62.93;100342.66;10504938;28;19924;-67
2022/07/10 15:36:49;;;;;;;;;;;;;;;19.90;65.69;100337.22;10504630;28;20227;-68
2022/07/10 15:41:52;;;;;;;;;;;;;;;19.73;66.84;100336.31;10504287;28;19931;-70
2022/07/10 15:46:54;;;;;;;;;;;;;;;20.06;66.35;100335.56;10503980;28;19946;-66
2022/07/10 15:52:00;;;;;;;;;;;;;;;20.31;66.23;100340.50;10504040;28;20357;-70
2022/07/10 15:57:03;;;;;;;;;;;;;;;20.56;66.02;100326.00;10503487;28;19935;-69
2022/07/10 16:02:06;;;;;;;;;;;;;;;20.20;66.70;100334.91;10503488;28;19925;-67
2022/07/10 16:07:10;;;;;;;;;;;;;;;20.17;66.67;100335.06;10503166;28;19931;-69
2022/07/10 16:12:13;;;;;;;;;;;;;;;19.94;66.22;100322.13;10503019;28;19924;-68
2022/07/10 16:17:16;;;;;;;;;;;;;;;19.89;66.44;100321.50;10502806;28;19925;-65
2022/07/10 16:22:20;;;;;;;;;;;;;;;19.74;66.13;100320.47;10502439;28;19924;-68
2022/07/10 16:27:23;;;;;;;;;;;;;;;19.50;65.92;100326.88;10502678;28;19925;-68
2022/07/10 16:32:26;;;;;;;;;;;;;;;19.41;66.21;100317.63;10502393;28;19925;-65
2022/07/10 16:37:33;;;;;;;;;;;;;;;19.44;66.35;100321.91;10501601;28;22459;-69
2022/07/10 16:42:36;;;;;;;;;;;;;;;19.34;64.16;100318.88;10501493;28;19924;-65
2022/07/10 16:47:39;;;;;;;;;;;;;;;19.31;64.80;100319.00;10502017;28;19924;-70
2022/07/10 16:52:43;;;;;;;;;;;;;;;19.29;65.50;100327.88;10501860;28;19924;-65
2022/07/10 16:57:46;;;;;;;;;;;;;;;19.04;65.92;100332.53;10501467;28;19925;-66
2022/07/10 17:02:49;;;;;;;;;;;;;;;19.02;65.55;100337.84;10501623;28;19924;-66
2022/07/10 17:07:53;;;;;;;;;;;;;;;19.02;65.42;100351.00;10501331;28;19924;-69
2022/07/10 17:12:56;;;;;;;;;;;;;;;19.05;65.08;100360.56;10501047;28;20069;-70
2022/07/10 17:17:59;;;;;;;;;;;;;;;19.00;65.64;100354.66;10501060;28;19925;-67
2022/07/10 17:23:04;;;;;;;;;;;;;;;18.78;66.78;100362.63;10500919;28;19924;-67
2022/07/10 17:28:07;;;;;;;;;;;;;;;18.64;67.76;100370.25;10500811;28;19925;-66
2022/07/10 17:33:10;;;;;;;;;;;;;;;18.46;67.55;100384.16;10500841;28;20362;-68
2022/07/10 17:38:19;;;;;;;;;;;;;;;18.25;68.99;100392.91;10500521;28;19928;-68
2022/07/10 17:43:22;;;;;;;;;;;;;;;18.04;71.31;100402.50;10500687;28;19925;-67
2022/07/10 17:48:26;;;;;;;;;;;;;;;17.92;72.81;100395.09;10500622;28;20249;-66
2022/07/10 17:53:30;;;;;;;;;;;;;;;17.89;72.43;100390.00;10502599;28;19935;-66
2022/07/10 17:58:33;;;;;;;;;;;;;;;17.88;72.12;100390.88;10508086;28;19935;-68
2022/07/10 18:03:36;;;;;;;;;;;;;;;17.86;72.25;100389.25;10508224;28;20019;-67
2022/07/10 18:08:43;;;;;;;;;;;;;;;17.79;73.17;100396.50;10508424;28;19934;-67
2022/07/10 18:13:47;;;;;;;;;;;;;;;17.58;74.91;100397.34;10508063;28;19925;-69
2022/07/10 18:18:51;;;;;;;;;;;;;;;17.51;76.24;100411.59;10507684;28;19924;-67
2022/07/10 18:23:59;;;;;;;;;;;;;;;17.29;77.87;100408.03;10507123;28;20023;-67
2022/07/10 18:29:02;;;;;;;;;;;;;;;17.25;78.05;100403.81;10507509;28;19924;-65
2022/07/10 18:39:27;;;;;;;;;;;;;;;17.32;78.09;100413.16;10506893;28;19950;-66
2022/07/10 18:44:30;;;;;;;;;;;;;;;17.33;78.57;100423.59;10506941;28;19925;-67
2022/07/10 18:49:33;;;;;;;;;;;;;;;17.31;78.87;100414.91;10506648;28;19950;-67
2022/07/10 18:54:38;;;;;;;;;;;;;;;17.19;78.75;100428.47;10506305;28;20260;-68
2022/07/10 18:59:42;;;;;;;;;;;;;;;17.14;79.17;100426.94;10506283;28;19924;-67
2022/07/10 19:04:45;;;;;;;;;;;;;;;16.88;80.95;100440.97;10505624;28;20230;-67
2022/07/10 19:09:49;;;;;;;;;;;;;;;16.77;82.22;100434.38;10505625;28;20031;-68
2022/07/10 19:14:52;;;;;;;;;;;;;;;16.69;82.79;100449.47;10505621;28;20011;-67
2022/07/10 19:19:55;;;;;;;;;;;;;;;16.63;83.64;100453.19;10505534;28;19925;-65
2022/07/10 19:25:00;;;;;;;;;;;;;;;16.46;85.55;100449.38;10505325;28;20227;-66
2022/07/10 19:30:03;;;;;;;;;;;;;;;16.55;85.76;100457.81;10504940;28;19925;-67
2022/07/10 19:35:06;;;;;;;;;;;;;;;16.41;87.18;100451.28;10504856;28;19924;-68
2022/07/10 19:40:12;;;;;;;;;;;;;;;16.59;86.70;100454.19;10504324;28;19931;-67
2022/07/10 19:45:15;;;;;;;;;;;;;;;16.34;88.23;100460.25;10504316;28;20303;-65
2022/07/10 19:50:18;;;;;;;;;;;;;;;16.20;89.41;100458.91;10504104;28;20365;-66
2022/07/10 19:55:23;;;;;;;;;;;;;;;16.30;89.83;100453.38;10503821;28;20340;-69
2022/07/10 20:00:26;;;;;;;;;;;;;;;16.45;89.40;100458.13;10503655;28;19924;-71
2022/07/10 20:05:29;;;;;;;;;;;;;;;16.25;91.50;100466.63;10503326;28;19968;-68
2022/07/10 20:10:33;;;;;;;;;;;;;;;16.20;92.43;100471.16;10503256;28;19924;-68
2022/07/10 20:15:36;;;;;;;;;;;;;;;16.04;94.00;100467.28;10502386;28;19935;-73
2022/07/10 20:20:59;;;;;;;;;;;;;;;15.99;95.25;100474.44;10502609;28;20367;-69
2022/07/10 20:26:04;;;;;;;;;;;;;;;15.92;95.91;100478.13;10502764;28;20250;-67
2022/07/10 20:31:10;;;;;;;;;;;;;;;15.88;96.74;100480.00;10502686;28;19931;-66
2022/07/10 20:41:36;;;;;;;;;;;;;;;15.86;97.56;100473.94;10501975;28;20270;-68
2022/07/10 20:46:38;;;;;;;;;;;;;;;15.89;97.32;100478.25;10502017;28;19925;-68
2022/07/10 20:51:42;;;;;;;;;;;;;;;15.84;97.67;100480.13;10501862;28;20013;-66
2022/07/10 20:56:46;;;;;;;;;;;;;;;15.92;96.77;100481.63;10501813;28;19935;-66
2022/07/10 21:01:49;;;;;;;;;;;;;;;15.82;97.35;100477.56;10501643;28;19924;-67
2022/07/10 21:06:53;;;;;;;;;;;;;;;15.73;98.26;100480.44;10501424;28;19925;-66
2022/07/10 21:11:57;;;;;;;;;;;;;;;15.82;97.81;100480.19;10501357;28;20227;-68
2022/07/10 21:17:00;;;;;;;;;;;;;;;15.82;97.75;100477.56;10501276;28;19925;-70
2022/07/10 21:22:03;;;;;;;;;;;;;;;15.80;96.97;100484.59;10501230;28;19925;-69
2022/07/10 21:27:07;;;;;;;;;;;;;;;15.69;97.78;100491.88;10504127;28;19925;-69
2022/07/10 21:32:10;;;;;;;;;;;;;;;15.61;99.19;100482.53;10514668;28;19924;-66
2022/07/10 21:37:13;;;;;;;;;;;;;;;15.61;99.46;100496.50;10514653;28;19946;-68
2022/07/10 21:42:18;;;;;;;;;;;;;;;15.48;100.00;100491.66;10514503;28;20211;-68
2022/07/10 21:47:22;;;;;;;;;;;;;;;15.34;100.00;100491.97;10514543;28;19931;-68
2022/07/10 21:52:25;;;;;;;;;;;;;;;15.38;100.00;100496.22;10514137;28;20374;-71
2022/07/10 21:57:32;;;;;;;;;;;;;;;15.44;100.00;100501.34;10514138;28;20265;-68
2022/07/10 22:02:35;;;;;;;;;;;;;;;15.47;100.00;100506.50;10514306;28;19925;-68
2022/07/10 22:07:38;;;;;;;;;;;;;;;15.48;100.00;100509.97;10514611;28;19935;-68
2022/07/10 22:12:43;;;;;;;;;;;;;;;15.37;100.00;100504.13;10513929;28;19925;-70
2022/07/10 22:17:46;;;;;;;;;;;;;;;15.36;100.00;100498.03;10513834;28;20288;-69
2022/07/10 22:22:49;;;;;;;;;;;;;;;15.34;100.00;100502.44;10513615;28;19924;-69
2022/07/10 22:27:53;;;;;;;;;;;;;;;15.25;100.00;100512.31;10513847;28;19924;-66
2022/07/10 22:32:56;;;;;;;;;;;;;;;15.16;100.00;100495.09;10513812;28;19929;-67
2022/07/10 22:37:59;;;;;;;;;;;;;;;15.25;100.00;100501.84;10512165;28;19935;-67
2022/07/10 22:43:04;;;;;;;;;;;;;;;15.17;100.00;100511.66;10506781;28;19924;-70
2022/07/10 22:48:07;;;;;;;;;;;;;;;15.23;100.00;100514.09;10506766;28;19929;-68
2022/07/10 22:53:10;;;;;;;;;;;;;;;15.09;100.00;100504.00;10506471;28;19924;-71
2022/07/10 22:58:14;;;;;;;;;;;;;;;15.05;100.00;100503.22;10506327;28;19925;-66
2022/07/10 23:03:17;;;;;;;;;;;;;;;15.07;100.00;100503.19;10506036;28;20006;-70
2022/07/10 23:08:20;;;;;;;;;;;;;;;14.96;100.00;100497.38;10506197;28;19924;-68
2022/07/10 23:13:25;;;;;;;;;;;;;;;15.01;100.00;100498.13;10505860;28;19925;-68
2022/07/10 23:18:28;;;;;;;;;;;;;;;15.04;100.00;100492.81;10505812;28;20238;-68
2022/07/10 23:23:34;;;;;;;;;;;;;;;14.94;100.00;100489.56;10505171;28;19931;-64
2022/07/10 23:28:39;;;;;;;;;;;;;;;14.82;100.00;100494.25;10505774;28;20015;-66
2022/07/10 23:33:42;;;;;;;;;;;;;;;14.88;100.00;100494.97;10505043;28;19925;-68
2022/07/10 23:38:46;;;;;;;;;;;;;;;14.81;100.00;100489.91;10504715;28;19975;-69
2022/07/10 23:43:50;;;;;;;;;;;;;;;14.82;100.00;100497.72;10504569;28;19935;-70
2022/07/10 23:54:14;;;;;;;;;;;;;;;14.92;100.00;100496.59;10503099;28;20015;-67
2022/07/10 23:59:18;;;;;;;;;;;;;;;14.85;100.00;100502.03;10503909;28;19942;-67
